Time;durP1;ratioP1;P1;durP2;ratioP2;P2;SDS_P1;SDS_P2;PMS_P1;PMS_P2;Temp;Humidity;BMP_temperature;BMP_pressure;BME280_temperature;BME280_humidity;BME280_pressure;Samples;Min_cycle;Max_cycle;Signal;HPM_P1;HPM_P2
2022/02/11 00:08:58;;;;;;;2.72;1.33;;;;;;;;;;5054238;28;20062;-84
2022/02/11 00:11:32;;;;;;;3.75;1.45;;;;;;;;;;5019512;28;20045;-83
2022/02/11 00:13:58;;;;;;;5.85;2.45;;;;;;;;;;5044554;28;20041;-82
2022/02/11 00:16:24;;;;;;;;;;;;;;;;;;5031203;28;20124;-83
2022/02/11 00:18:51;;;;;;;3.22;1.67;;;;;;;;;;5042600;28;20056;-84
2022/02/11 00:21:20;;;;;;;2.97;1.10;;;;;;;;;;5043559;28;20437;-84
2022/02/11 00:23:46;;;;;;;9.25;1.92;;;;;;;;;;5060176;28;20047;-84
2022/02/11 00:26:13;;;;;;;3.30;1.58;;;;;;;;;;5014809;28;20041;-85
2022/02/11 00:33:58;;;;;;;1.88;1.52;;;;;;;;;;5064162;28;20053;-84
2022/02/11 00:36:41;;;;;;;1.55;1.20;;;;;;;;;;5030162;28;20171;-85
2022/02/11 01:03:57;;;;;;;1.10;1.00;;;;;;;;;;5052384;28;20498;-83
2022/02/11 01:06:23;;;;;;;;;;;;;;;;;;5050040;28;20041;-83
2022/02/11 01:08:49;;;;;;;3.63;1.33;;;;;;;;;;5033242;28;19917;-82
2022/02/11 01:11:22;;;;;;;;;;;;;;;;;;5034346;28;20060;-83
2022/02/11 01:13:48;;;;;;;3.20;1.40;;;;;;;;;;5066219;28;19932;-82
2022/02/11 01:16:20;;;;;;;;;;;;;;;;;;5038103;28;20123;-82
2022/02/11 01:18:53;;;;;;;3.28;1.73;;;;;;;;;;5055335;28;19925;-82
2022/02/11 01:21:28;;;;;;;23.00;1.65;;;;;;;;;;5042833;28;20044;-83
2022/02/11 01:24:05;;;;;;;0.90;0.90;;;;;;;;;;5053190;28;20048;-83
2022/02/11 01:35:14;;;;;;;6.15;1.83;;;;;;;;;;5050388;28;20059;-81
2022/02/11 02:04:01;;;;;;;6.88;1.73;;;;;;;;;;5048256;28;20053;-84
2022/02/11 02:24:08;;;;;;;3.53;1.27;;;;;;;;;;5037050;28;20049;-85
2022/02/11 02:58:59;;;;;;;3.60;2.03;;;;;;;;;;5064280;28;20108;-84
2022/02/11 03:01:41;;;;;;;7.22;1.70;;;;;;;;;;5031522;28;20114;-84
2022/02/11 03:56:06;;;;;;;8.55;1.52;;;;;;;;;;5050834;28;20503;-82
2022/02/11 04:24:02;;;;;;;4.30;1.67;;;;;;;;;;5000269;28;20499;-88
2022/02/11 04:55:39;;;;;;;5.88;1.13;;;;;;;;;;5029028;28;20104;-83
2022/02/11 05:00:49;;;;;;;6.43;1.42;;;;;;;;;;5056973;28;20077;-84
2022/02/11 05:03:15;;;;;;;;;;;;;;;;;;5032930;28;20490;-82
2022/02/11 05:05:51;;;;;;;5.78;2.15;;;;;;;;;;5066883;28;20039;-83
2022/02/11 05:08:27;;;;;;;6.50;2.60;;;;;;;;;;5036603;28;20053;-84
2022/02/11 05:10:54;;;;;;;6.77;2.00;;;;;;;;;;5009294;28;20046;-82
2022/02/11 05:13:21;;;;;;;7.93;1.38;;;;;;;;;;5025623;28;20041;-83
2022/02/11 05:15:47;;;;;;;10.43;2.10;;;;;;;;;;5029253;28;20037;-83
2022/02/11 05:18:13;;;;;;;;;;;;;;;;;;5027544;28;20033;-83
2022/02/11 05:20:39;;;;;;;2.30;1.10;;;;;;;;;;5011923;28;20420;-84
2022/02/11 05:23:06;;;;;;;;;;;;;;;;;;5013978;28;20457;-84
2022/02/11 05:25:32;;;;;;;10.27;1.90;;;;;;;;;;5072291;28;19927;-83
2022/02/11 05:27:58;;;;;;;6.22;1.40;;;;;;;;;;5056402;28;20045;-84
2022/02/11 05:30:24;;;;;;;3.05;1.38;;;;;;;;;;5061440;28;20095;-83
2022/02/11 05:32:50;;;;;;;;;;;;;;;;;;5013755;28;20049;-82
2022/02/11 05:35:16;;;;;;;3.00;1.40;;;;;;;;;;5042466;28;19971;-82
2022/02/11 05:37:42;;;;;;;2.75;1.95;;;;;;;;;;5028695;28;20163;-83
2022/02/11 05:40:09;;;;;;;3.97;1.73;;;;;;;;;;5045257;28;20506;-84
2022/02/11 05:42:35;;;;;;;8.30;1.65;;;;;;;;;;5061695;28;20087;-82
2022/02/11 05:45:01;;;;;;;;;;;;;;;;;;5017715;28;20033;-81
2022/02/11 05:47:27;;;;;;;5.47;2.08;;;;;;;;;;5044186;28;19917;-85
2022/02/11 05:49:53;;;;;;;4.50;1.60;;;;;;;;;;5049523;28;20486;-86
2022/02/11 05:52:19;;;;;;;5.90;1.95;;;;;;;;;;5035320;28;20041;-84
2022/02/11 05:54:45;;;;;;;;;;;;;;;;;;5049040;28;20048;-82
2022/02/11 05:57:11;;;;;;;5.15;2.00;;;;;;;;;;5032689;28;19917;-84
2022/02/11 05:59:37;;;;;;;;;;;;;;;;;;5049591;28;20037;-83
2022/02/11 06:02:03;;;;;;;4.57;1.63;;;;;;;;;;5063881;28;19974;-83
2022/02/11 06:04:29;;;;;;;1.75;1.23;;;;;;;;;;5018136;28;20075;-83
2022/02/11 06:06:57;;;;;;;1.83;1.42;;;;;;;;;;5049333;28;20095;-83
2022/02/11 06:09:23;;;;;;;7.55;1.50;;;;;;;;;;5047296;28;20041;-85
2022/02/11 06:11:49;;;;;;;;;;;;;;;;;;5022931;28;20045;-85
2022/02/11 06:14:18;;;;;;;6.40;1.75;;;;;;;;;;5065838;28;19980;-85
2022/02/11 06:16:44;;;;;;;8.48;1.80;;;;;;;;;;5030550;28;20041;-86
2022/02/11 06:19:10;;;;;;;;;;;;;;;;;;5032174;28;20041;-84
2022/02/11 06:21:36;;;;;;;3.72;1.45;;;;;;;;;;5022136;28;20341;-86
2022/02/11 06:24:02;;;;;;;;;;;;;;;;;;5017258;28;20040;-84
2022/02/11 06:26:28;;;;;;;6.97;1.63;;;;;;;;;;5034145;28;19928;-84
2022/02/11 06:28:57;;;;;;;;;;;;;;;;;;5044959;28;20488;-83
2022/02/11 06:31:24;;;;;;;6.63;2.13;;;;;;;;;;5032167;28;19917;-83
2022/02/11 06:33:50;;;;;;;8.90;1.65;;;;;;;;;;5017044;28;20536;-84
2022/02/11 06:36:16;;;;;;;8.52;1.70;;;;;;;;;;5028698;28;20042;-83
2022/02/11 06:38:43;;;;;;;3.63;1.13;;;;;;;;;;5063909;28;20515;-83
2022/02/11 06:41:09;;;;;;;;;;;;;;;;;;5048286;28;20371;-84
2022/02/11 06:43:35;;;;;;;1.50;1.40;;;;;;;;;;5063413;28;19943;-83
2022/02/11 06:46:04;;;;;;;;;;;;;;;;;;5036089;28;20463;-84
2022/02/11 06:48:31;;;;;;;6.88;2.47;;;;;;;;;;5041289;28;19924;-83
2022/02/11 06:50:58;;;;;;;1.67;1.23;;;;;;;;;;5060706;28;20052;-83
2022/02/11 06:53:24;;;;;;;4.03;1.23;;;;;;;;;;5014674;28;20082;-83
2022/02/11 06:55:50;;;;;;;;;;;;;;;;;;5046753;28;20044;-83
2022/02/11 06:58:16;;;;;;;1.38;0.85;;;;;;;;;;5031487;28;20393;-83
2022/02/11 07:00:46;;;;;;;7.82;2.45;;;;;;;;;;5047078;28;20096;-85
2022/02/11 07:03:13;;;;;;;5.40;2.10;;;;;;;;;;5060892;28;20120;-85
2022/02/11 07:05:39;;;;;;;7.22;1.23;;;;;;;;;;5027744;28;20091;-84
2022/02/11 07:08:06;;;;;;;3.60;1.40;;;;;;;;;;5019255;28;20037;-83
2022/02/11 07:10:32;;;;;;;1.95;1.50;;;;;;;;;;5034616;28;20433;-84
2022/02/11 07:12:58;;;;;;;2.15;1.00;;;4.40;99.90;;;;;;5063664;28;20030;-85
2022/02/11 07:15:24;;;;;;;1.55;1.08;;;4.60;99.90;;;;;;5044679;28;20040;-85
2022/02/11 07:17:49;;;;;;;2.60;1.30;;;4.50;99.90;;;;;;5029782;28;20477;-84
2022/02/11 07:20:16;;;;;;;1.02;0.90;;;4.60;99.90;;;;;;5035455;28;20130;-84
2022/02/11 07:22:41;;;;;;;1.85;1.20;;;4.50;99.90;;;;;;5057586;28;20176;-85
2022/02/11 07:25:13;;;;;;;1.85;1.27;;;4.60;99.90;;;;;;5064567;28;20128;-84
2022/02/11 07:27:39;;;;;;;2.95;1.20;;;4.60;99.90;;;;;;5004351;28;20116;-85
2022/02/11 07:30:05;;;;;;;;;;;4.60;99.90;;;;;;5045207;28;20049;-83
2022/02/11 07:32:31;;;;;;;1.15;0.80;;;4.60;99.90;;;;;;5028126;28;19921;-84
2022/02/11 07:35:02;;;;;;;4.53;1.42;;;4.50;99.90;;;;;;5060750;28;20045;-84
2022/02/11 07:37:30;;;;;;;5.00;1.70;;;4.10;99.90;;;;;;5029496;28;20060;-83
2022/02/11 07:39:58;;;;;;;2.13;1.00;;;4.60;99.90;;;;;;5014166;28;20053;-83
2022/02/11 07:42:25;;;;;;;3.53;0.95;;;4.50;99.90;;;;;;4996017;28;20044;-82
2022/02/11 07:44:52;;;;;;;5.63;2.08;;;4.50;99.90;;;;;;5037056;28;20042;-83
2022/02/11 07:47:18;;;;;;;9.48;2.83;;;4.20;99.90;;;;;;5061069;28;20045;-83
2022/02/11 07:49:44;;;;;;;0.90;0.90;;;4.60;99.90;;;;;;5037025;28;20046;-85
2022/02/11 07:52:10;;;;;;;1.85;1.30;;;4.60;99.90;;;;;;5040177;28;20055;-88
2022/02/11 07:54:36;;;;;;;1.70;1.05;;;4.50;99.90;;;;;;5062353;28;20513;-88
2022/02/11 07:57:01;;;;;;;4.00;0.88;;;4.40;99.90;;;;;;5028344;28;20045;-86
2022/02/11 07:59:27;;;;;;;2.15;1.58;;;4.30;99.90;;;;;;5044064;28;20052;-88
2022/02/11 08:01:53;;;;;;;4.60;1.38;;;4.20;99.90;;;;;;5040896;28;20073;-88
2022/02/11 08:04:19;;;;;;;3.03;1.52;;;4.50;99.90;;;;;;5033210;28;20052;-87
2022/02/11 08:06:44;;;;;;;0.70;0.70;;;4.00;99.90;;;;;;5046146;28;20045;-88
2022/02/11 08:09:10;;;;;;;2.67;1.42;;;3.90;99.90;;;;;;5044859;28;20045;-88
2022/02/11 08:11:36;;;;;;;4.65;1.23;;;4.00;99.90;;;;;;5034109;28;20140;-88
2022/02/11 08:14:02;;;;;;;1.45;0.90;;;4.00;99.90;;;;;;5044907;28;20372;-89
2022/02/11 08:16:28;;;;;;;8.02;1.80;;;3.90;99.90;;;;;;5028231;28;20487;-88
2022/02/11 08:18:54;;;;;;;3.67;1.27;;;4.00;99.90;;;;;;5061593;28;20056;-88
2022/02/11 08:21:21;;;;;;;4.72;1.67;;;4.00;99.90;;;;;;5012367;28;20033;-88
2022/02/11 08:23:47;;;;;;;4.30;2.08;;;4.00;99.90;;;;;;5030222;28;20580;-88
2022/02/11 08:26:14;;;;;;;5.53;1.85;;;4.00;99.90;;;;;;5014084;28;20124;-88
2022/02/11 08:28:40;;;;;;;4.47;1.25;;;4.00;99.90;;;;;;5028092;28;20049;-88
2022/02/11 08:31:05;;;;;;;5.03;1.27;;;3.90;99.90;;;;;;5028029;28;20424;-88
2022/02/11 08:33:31;;;;;;;8.65;2.00;;;4.10;99.90;;;;;;5043773;28;20524;-88
2022/02/11 08:35:57;;;;;;;3.60;1.50;;;4.20;99.90;;;;;;5010239;28;20485;-87
2022/02/11 08:38:25;;;;;;;4.57;1.75;;;4.20;99.90;;;;;;5044058;28;20087;-88
2022/02/11 08:40:52;;;;;;;9.20;1.70;;;4.30;99.90;;;;;;5045352;28;20052;-89
2022/02/11 08:43:19;;;;;;;6.60;2.30;;;4.40;99.90;;;;;;5028210;28;20091;-88
2022/02/11 08:45:45;;;;;;;2.10;1.60;;;4.40;99.90;;;;;;5027900;28;20095;-88
2022/02/11 08:48:13;;;;;;;4.05;1.58;;;4.40;99.90;;;;;;5036153;28;20037;-87
2022/02/11 08:50:40;;;;;;;4.55;2.17;;;4.60;99.90;;;;;;5043701;28;20044;-88
2022/02/11 08:53:07;;;;;;;4.70;2.45;;;4.40;99.90;;;;;;5028278;28;20075;-87
2022/02/11 08:55:34;;;;;;;7.30;1.35;;;4.60;99.90;;;;;;5066975;28;20402;-88
2022/02/11 08:58:01;;;;;;;3.70;2.33;;;4.70;99.90;;;;;;5045797;28;20474;-88
2022/02/11 09:00:27;;;;;;;;;;;4.80;99.90;;;;;;5038608;28;20495;-88
2022/02/11 09:02:54;;;;;;;1.57;1.33;;;4.90;99.90;;;;;;5020510;28;19925;-87
2022/02/11 09:05:21;;;;;;;5.97;2.00;;;5.20;99.90;;;;;;5044461;28;20033;-91
2022/02/11 09:07:52;;;;;;;11.95;1.98;;;3.90;99.90;;;;;;5044369;28;20077;-89
2022/02/11 09:10:19;;;;;;;3.83;1.60;;;4.40;99.90;;;;;;5028376;28;20100;-89
2022/02/11 09:12:44;;;;;;;2.45;1.30;;;3.80;99.90;;;;;;5024164;28;21628;-90
2022/02/11 09:15:10;;;;;;;2.30;1.73;;;3.70;99.90;;;;;;5042922;28;20133;-89
2022/02/11 09:17:36;;;;;;;2.95;1.75;;;3.60;99.90;;;;;;5008921;28;20589;-89
2022/02/11 09:20:03;;;;;;;4.65;1.73;;;3.90;99.90;;;;;;4980134;28;20041;-90
2022/02/11 09:22:30;;;;;;;11.23;1.38;;;3.80;99.90;;;;;;5017900;28;20155;-89
2022/02/11 09:24:56;;;;;;;6.25;1.90;;;3.80;99.90;;;;;;5036743;28;20530;-90
2022/02/11 09:27:22;;;;;;;;;;;3.90;99.90;;;;;;5033306;28;20478;-89
2022/02/11 09:29:49;;;;;;;2.80;1.92;;;4.50;99.90;;;;;;5016271;28;19923;-91
2022/02/11 09:32:15;;;;;;;;;;;4.20;99.90;;;;;;5032713;28;20125;-90
2022/02/11 09:34:42;;;;;;;2.47;1.40;;;4.30;99.90;;;;;;5030687;28;20250;-89
2022/02/11 09:37:14;;;;;;;2.50;1.63;;;4.20;99.90;;;;;;5050174;28;20052;-91
2022/02/11 09:39:39;;;;;;;5.55;2.03;;;4.10;99.90;;;;;;5044076;28;20061;-88
2022/02/11 09:42:06;;;;;;;9.82;2.05;;;4.10;99.90;;;;;;5026030;28;20052;-91
2022/02/11 09:44:32;;;;;;;4.38;1.60;;;4.20;99.90;;;;;;5049439;28;20042;-88
2022/02/11 09:46:59;;;;;;;4.78;1.83;;;4.30;99.90;;;;;;5017664;28;20091;-88
2022/02/11 09:49:25;;;;;;;4.38;2.33;;;4.40;99.90;;;;;;5032858;28;20045;-88
2022/02/11 09:51:57;;;;;;;2.03;1.67;;;4.60;99.90;;;;;;5071127;28;20033;-87
2022/02/11 09:54:23;;;;;;;8.70;1.67;;;4.60;99.90;;;;;;4993716;28;20041;-90
2022/02/11 09:56:51;;;;;;;1.65;1.38;;;4.60;99.90;;;;;;5077099;28;20057;-87
2022/02/11 09:59:17;;;;;;;4.95;1.83;;;4.70;99.90;;;;;;5049069;28;20095;-90
2022/02/11 10:01:44;;;;;;;;;;;4.90;99.90;;;;;;5048836;28;20116;-89
2022/02/11 10:04:22;;;;;;;2.53;1.33;;;5.00;99.90;;;;;;5017285;28;20017;-88
2022/02/11 10:06:50;;;;;;;3.65;1.35;;;5.20;99.90;;;;;;5065432;28;20387;-88
2022/02/11 10:09:17;;;;;;;1.48;0.93;;;5.10;99.90;;;;;;5009382;28;20375;-90
2022/02/11 10:11:44;;;;;;;4.88;1.67;;;4.90;99.90;;;;;;5048681;28;20053;-90
2022/02/11 10:14:21;;;;;;;10.45;1.98;;;4.40;99.90;;;;;;5032712;28;20052;-90
2022/02/11 10:17:02;;;;;;;6.35;2.08;;;4.10;99.90;;;;;;5055797;28;20052;-90
2022/02/11 10:19:37;;;;;;;7.30;2.65;;;3.90;99.90;;;;;;4986564;28;20037;-90
2022/02/11 10:22:15;;;;;;;12.40;1.33;;;3.70;99.90;;;;;;5027743;28;20041;-88
2022/02/11 10:24:41;;;;;;;4.57;1.90;;;3.60;99.90;;;;;;5014889;28;20115;-91
2022/02/11 10:27:37;;;;;;;15.52;3.00;;;3.50;99.90;;;;;;5060007;28;20080;-90
2022/02/11 10:30:09;;;;;;;7.63;1.77;;;4.30;99.90;;;;;;5023558;28;20076;-91
2022/02/11 10:32:36;;;;;;;6.20;1.70;;;3.80;99.90;;;;;;5055284;28;20045;-91
2022/02/11 10:35:02;;;;;;;8.98;1.88;;;3.80;99.90;;;;;;5050956;28;20077;-89
2022/02/11 10:37:28;;;;;;;4.80;1.67;;;3.90;99.90;;;;;;5069501;28;20037;-89
2022/02/11 10:39:58;;;;;;;5.65;1.40;;;4.00;99.90;;;;;;5052394;28;20041;-89
2022/02/11 10:42:45;;;;;;;9.13;2.90;;;4.10;99.90;;;;;;5045568;28;20049;-90
2022/02/11 10:45:37;;;;;;;7.55;1.85;;;4.30;99.90;;;;;;5073475;28;20100;-89
2022/02/11 10:48:11;;;;;;;5.65;2.28;;;4.20;99.90;;;;;;5044729;28;20030;-90
2022/02/11 10:50:37;;;;;;;8.77;2.83;;;4.30;99.90;;;;;;5058402;28;20554;-89
2022/02/11 10:53:02;;;;;;;2.78;1.70;;;4.80;99.90;;;;;;5041705;28;20053;-89
2022/02/11 10:55:28;;;;;;;0.70;0.70;;;4.50;99.90;;;;;;5060316;28;20057;-90
2022/02/11 10:57:58;;;;;;;1.27;1.17;;;4.50;99.90;;;;;;5045474;28;20067;-89
2022/02/11 11:00:24;;;;;;;2.67;1.75;;;4.70;99.90;;;;;;5029997;28;20576;-89
2022/02/11 11:02:50;;;;;;;3.58;1.27;;;4.80;99.90;;;;;;5062494;28;20041;-89
2022/02/11 11:05:15;;;;;;;1.80;1.25;;;4.80;99.90;;;;;;4996482;28;20079;-89
2022/02/11 11:07:43;;;;;;;4.60;2.15;;;4.90;99.90;;;;;;5026420;28;20076;-85
2022/02/11 11:10:11;;;;;;;3.25;1.00;;;4.90;99.90;;;;;;5065918;28;20048;-86
2022/02/11 11:12:41;;;;;;;6.80;1.48;;;5.40;99.90;;;;;;5031597;28;20493;-89
2022/02/11 11:15:11;;;;;;;5.43;1.00;;;4.90;99.90;;;;;;5036146;28;20548;-87
2022/02/11 11:17:38;;;;;;;2.00;1.02;;;5.00;99.90;;;;;;5041452;28;20049;-88
2022/02/11 11:20:05;;;;;;;3.30;1.67;;;5.10;99.90;;;;;;5043759;28;20041;-86
2022/02/11 11:22:43;;;;;;;0.88;0.82;;;5.30;99.90;;;;;;5030010;28;20045;-88
2022/02/11 11:25:09;;;;;;;1.20;1.15;;;5.60;99.90;;;;;;5019174;28;20543;-89
2022/02/11 11:27:54;;;;;;;1.83;1.35;;;5.90;99.90;;;;;;5025774;28;20045;-88
2022/02/11 11:30:29;;;;;;;1.20;1.08;;;6.10;99.90;;;;;;5042256;28;20050;-89
2022/02/11 11:33:06;;;;;;;3.20;1.02;;;6.40;99.90;;;;;;5000869;28;20057;-88
2022/02/11 11:35:41;;;;;;;2.22;1.13;;;6.30;99.90;;;;;;5036005;28;20072;-88
2022/02/11 11:38:13;;;;;;;4.68;1.73;;;6.20;99.90;;;;;;5061667;28;20049;-89
2022/02/11 11:40:40;;;;;;;0.80;0.80;;;6.10;99.90;;;;;;5068341;28;20060;-86
2022/02/11 11:43:30;;;;;;;6.30;1.75;;;5.90;99.90;;;;;;5037166;28;20038;-87
2022/02/11 11:46:26;;;;;;;0.60;0.60;;;5.90;99.90;;;;;;5033600;28;20110;-86
2022/02/11 11:48:54;;;;;;;1.10;1.00;;;5.60;99.90;;;;;;5035718;28;20065;-87
2022/02/11 11:51:21;;;;;;;5.55;1.45;;;5.40;99.90;;;;;;5011950;28;20391;-86
2022/02/11 11:53:47;;;;;;;7.35;1.85;;;5.20;99.90;;;;;;5034085;28;20109;-89
2022/02/11 11:56:35;;;;;;;0.90;0.90;;;4.90;99.90;;;;;;5029603;28;20149;-90
2022/02/11 11:59:20;;;;;;;10.38;2.67;;;4.90;99.90;;;;;;5060139;28;20064;-89
2022/02/11 12:01:52;;;;;;;6.70;2.85;;;4.90;99.90;;;;;;5012273;28;20041;-87
2022/02/11 12:04:22;;;;;;;2.22;1.58;;;4.90;99.90;;;;;;5058731;28;20041;-88
2022/02/11 12:06:59;;;;;;;2.75;1.63;;;5.00;99.90;;;;;;5028463;28;20052;-87
2022/02/11 12:09:27;;;;;;;9.82;2.03;;;5.10;99.90;;;;;;5014484;28;20538;-88
2022/02/11 12:12:04;;;;;;;3.72;1.83;;;5.10;99.90;;;;;;5060886;28;20041;-88
2022/02/11 12:14:32;;;;;;;7.13;1.30;;;5.20;99.90;;;;;;5022409;28;20081;-87
2022/02/11 12:17:03;;;;;;;5.13;2.08;;;5.30;99.90;;;;;;5060201;28;20037;-87
2022/02/11 12:19:30;;;;;;;8.00;2.00;;;5.40;99.90;;;;;;5022491;28;20517;-88
2022/02/11 12:21:58;;;;;;;3.13;1.25;;;5.40;99.90;;;;;;5008988;28;20103;-88
2022/02/11 12:27:21;;;;;;;1.55;1.08;;;5.50;99.90;;;;;;5052464;28;20503;-87
2022/02/11 12:29:49;;;;;;;8.15;1.42;;;5.50;99.90;;;;;;4999041;28;20398;-87
2022/02/11 12:32:16;;;;;;;2.10;1.73;;;5.50;99.90;;;;;;5060998;28;20056;-86
2022/02/11 12:34:56;;;;;;;8.95;1.80;;;5.50;99.90;;;;;;5043316;28;20077;-90
2022/02/11 12:37:23;;;;;;;1.92;1.30;;;5.50;99.90;;;;;;5056618;28;20461;-89
2022/02/11 12:40:05;;;;;;;1.98;1.33;;;5.40;99.90;;;;;;5012007;28;20049;-89
2022/02/11 12:42:31;;;;;;;2.83;1.65;;;5.50;99.90;;;;;;5062498;28;20415;-88
2022/02/11 12:44:58;;;;;;;0.77;0.77;;;5.60;99.90;;;;;;5057580;28;20049;-90
2022/02/11 12:47:27;;;;;;;13.82;1.58;;;5.60;99.90;;;;;;5029842;28;20045;-88
2022/02/11 12:49:53;;;;;;;1.88;1.58;;;5.70;99.90;;;;;;5009279;28;20064;-89
2022/02/11 12:52:24;;;;;;;1.52;1.02;;;5.70;99.90;;;;;;5024581;28;20411;-88
2022/02/11 12:54:56;;;;;;;2.22;1.35;;;5.60;99.90;;;;;;5032722;28;20041;-88
2022/02/11 12:57:22;;;;;;;2.83;1.20;;;5.60;99.90;;;;;;5072741;28;20045;-88
2022/02/11 12:59:53;;;;;;;3.63;1.50;;;5.60;99.90;;;;;;5069750;28;20046;-88
2022/02/11 13:02:38;;;;;;;1.92;1.83;;;5.70;99.90;;;;;;5076969;28;20071;-86
2022/02/11 13:05:16;;;;;;;6.22;1.27;;;6.00;99.90;;;;;;5036509;28;20052;-88
2022/02/11 13:07:44;;;;;;;1.30;1.20;;;6.40;99.90;;;;;;5034399;28;20461;-89
2022/02/11 13:10:17;;;;;;;1.23;0.88;;;6.60;99.90;;;;;;5063063;28;20124;-89
2022/02/11 13:12:44;;;;;;;4.18;1.52;;;6.70;99.90;;;;;;5065486;28;20048;-87
2022/02/11 13:15:12;;;;;;;5.40;1.00;;;6.70;99.90;;;;;;5067843;28;20407;-87
2022/02/11 13:17:39;;;;;;;8.85;1.63;;;6.60;99.90;;;;;;5012751;28;20044;-88
2022/02/11 13:20:18;;;;;;;2.88;1.65;;;6.50;99.90;;;;;;5036503;28;20038;-89
2022/02/11 13:22:45;;;;;;;7.45;1.92;;;6.30;99.90;;;;;;5018186;28;20577;-88
2022/02/11 13:25:14;;;;;;;1.02;0.90;;;6.20;99.90;;;;;;5047510;28;20042;-90
2022/02/11 13:27:43;;;;;;;1.15;1.05;;;6.10;99.90;;;;;;5038418;28;20052;-89
2022/02/11 13:30:14;;;;;;;4.15;1.70;;;6.00;99.90;;;;;;5024116;28;20042;-88
2022/02/11 13:32:40;;;;;;;1.95;1.02;;;5.90;99.90;;;;;;5020809;28;20049;-90
2022/02/11 13:35:07;;;;;;;;;;;5.90;99.90;;;;;;5017398;28;20041;-89
2022/02/11 13:37:41;;;;;;;1.33;1.23;;;5.90;99.90;;;;;;5028447;28;20039;-87
2022/02/11 13:40:13;;;;;;;1.75;1.08;;;5.90;99.90;;;;;;5033691;28;20061;-90
2022/02/11 13:42:38;;;;;;;1.67;1.02;;;5.90;99.90;;;;;;5066777;28;20159;-88
2022/02/11 13:45:07;;;;;;;1.27;1.17;;;5.90;99.90;;;;;;5055164;28;20079;-89
2022/02/11 13:47:33;;;;;;;0.73;0.73;;;5.90;99.90;;;;;;5036689;28;20053;-88
2022/02/11 13:50:06;;;;;;;0.90;0.90;;;5.80;99.90;;;;;;4998177;28;20045;-88
2022/02/11 13:53:01;;;;;;;0.77;0.77;;;6.00;99.90;;;;;;5038747;28;20403;-88
2022/02/11 13:55:27;;;;;;;1.73;1.40;;;5.90;99.90;;;;;;5020639;28;20041;-88
2022/02/11 13:57:53;;;;;;;0.90;0.90;;;5.90;99.90;;;;;;5030598;28;20045;-88
2022/02/11 14:00:36;;;;;;;4.43;1.33;;;6.00;99.90;;;;;;5048711;28;20048;-90
2022/02/11 14:03:02;;;;;;;5.40;1.50;;;6.00;99.90;;;;;;5045845;28;20046;-89
2022/02/11 14:05:31;;;;;;;3.08;1.38;;;6.30;99.90;;;;;;5029768;28;20044;-90
2022/02/11 14:07:57;;;;;;;2.42;1.38;;;6.30;99.90;;;;;;4995838;28;20398;-89
2022/02/11 14:10:23;;;;;;;4.03;1.27;;;6.80;99.90;;;;;;5014094;28;20042;-90
2022/02/11 14:12:49;;;;;;;3.90;2.10;;;7.00;99.90;;;;;;5046745;28;20055;-89
2022/02/11 14:15:16;;;;;;;0.80;0.80;;;7.50;99.90;;;;;;5025819;28;20128;-89
2022/02/11 14:17:43;;;;;;;1.13;1.02;;;7.80;99.90;;;;;;5027812;28;20061;-87
2022/02/11 14:20:10;;;;;;;1.63;1.08;;;7.90;99.90;;;;;;5050794;28;20076;-87
2022/02/11 14:22:37;;;;;;;1.33;1.13;;;8.10;99.90;;;;;;4988143;28;20041;-86
2022/02/11 14:25:04;;;;;;;1.55;1.08;;;8.40;99.90;;;;;;5015048;28;20037;-88
2022/02/11 14:27:33;;;;;;;1.98;1.15;;;8.60;99.90;;;;;;5055531;28;20491;-88
2022/02/11 14:29:59;;;;;;;4.68;1.40;;;8.70;99.90;;;;;;5012474;28;20041;-88
2022/02/11 14:32:26;;;;;;;2.53;0.85;;;8.30;99.90;;;;;;5038699;28;20053;-89
2022/02/11 14:34:52;;;;;;;2.45;1.08;;;7.70;99.90;;;;;;5012716;28;20073;-89
2022/02/11 14:37:17;;;;;;;2.55;1.30;;;7.10;99.90;;;;;;5035581;28;20041;-90
2022/02/11 14:39:43;;;;;;;1.98;1.20;;;6.80;99.90;;;;;;5032196;28;20060;-88
2022/02/11 14:42:09;;;;;;;;;;;6.50;99.90;;;;;;5015314;28;20041;-88
2022/02/11 14:44:37;;;;;;;3.38;1.02;;;6.30;99.90;;;;;;5046452;28;20370;-88
2022/02/11 14:47:05;;;;;;;1.27;1.17;;;6.10;99.90;;;;;;5035709;28;20586;-89
2022/02/11 14:49:31;;;;;;;4.07;1.20;;;6.00;99.90;;;;;;5062787;28;20037;-89
2022/02/11 14:52:02;;;;;;;5.75;1.73;;;5.90;99.90;;;;;;5029139;28;20038;-89
2022/02/11 14:54:31;;;;;;;1.98;1.70;;;5.90;99.90;;;;;;5063188;28;20086;-89
2022/02/11 14:56:58;;;;;;;2.10;1.27;;;5.80;99.90;;;;;;5038831;28;20111;-89
2022/02/11 14:59:24;;;;;;;2.95;1.35;;;6.00;99.90;;;;;;5058877;28;20483;-88
2022/02/11 15:01:52;;;;;;;3.35;1.50;;;6.10;99.90;;;;;;5049375;28;20038;-88
2022/02/11 15:04:18;;;;;;;1.92;1.10;;;5.50;99.90;;;;;;5066089;28;20041;-88
2022/02/11 15:06:46;;;;;;;;;;;5.90;99.90;;;;;;5066862;28;20063;-87
2022/02/11 15:09:12;;;;;;;4.20;1.40;;;5.90;99.90;;;;;;5031950;28;19944;-88
2022/02/11 15:11:38;;;;;;;1.40;1.02;;;6.10;99.90;;;;;;5048428;28;20045;-89
2022/02/11 15:14:04;;;;;;;10.85;1.20;;;6.30;99.90;;;;;;5031183;28;20434;-89
2022/02/11 15:16:30;;;;;;;2.88;1.27;;;6.50;99.90;;;;;;5064788;28;20049;-88
2022/02/11 15:18:56;;;;;;;2.67;1.65;;;6.60;99.90;;;;;;5066595;28;20048;-89
2022/02/11 15:21:23;;;;;;;0.90;0.90;;;6.50;99.90;;;;;;5048417;28;20060;-90
2022/02/11 15:23:49;;;;;;;3.55;2.05;;;6.30;99.90;;;;;;5031088;28;20029;-89
2022/02/11 15:26:16;;;;;;;1.10;1.08;;;6.00;99.90;;;;;;5031349;28;20118;-89
2022/02/11 15:28:43;;;;;;;8.52;1.33;;;5.60;99.90;;;;;;5045204;28;20049;-87
2022/02/11 15:31:09;;;;;;;2.10;1.17;;;5.80;99.90;;;;;;5082688;28;20037;-88
2022/02/11 15:33:36;;;;;;;1.50;1.23;;;5.10;99.90;;;;;;5075896;28;20318;-88
2022/02/11 15:36:02;;;;;;;1.88;1.58;;;;;;;;;;5024200;28;20056;-88
2022/02/11 15:38:29;;;;;;;4.00;1.38;;;;;;;;;;5064587;28;20041;-89
2022/02/11 15:40:55;;;;;;;3.13;1.02;;;;;;;;;;5044400;28;20072;-89
2022/02/11 15:43:21;;;;;;;;;;;;;;;;;;5056438;28;20045;-88
2022/02/11 15:45:48;;;;;;;2.85;1.00;;;;;;;;;;5061833;28;20267;-89
2022/02/11 15:48:14;;;;;;;;;;;;;;;;;;5042239;28;20056;-91
2022/02/11 15:50:44;;;;;;;2.05;1.38;;;;;;;;;;5053210;28;20422;-89
2022/02/11 15:53:11;;;;;;;1.70;1.25;;;;;;;;;;5027353;28;20100;-83
2022/02/11 15:55:37;;;;;;;1.88;1.42;;;;;;;;;;5019727;28;20049;-83
2022/02/11 15:58:09;;;;;;;1.08;0.98;;;;;;;;;;5025777;28;20037;-83
2022/02/11 16:00:37;;;;;;;2.40;1.70;;;;;;;;;;5047191;28;20056;-82
2022/02/11 16:03:03;;;;;;;4.95;1.75;;;;;;;;;;5040833;28;20052;-83
2022/02/11 16:05:29;;;;;;;4.78;1.25;;;;;;;;;;5038240;28;20427;-83
2022/02/11 16:07:56;;;;;;;1.40;1.17;;;;;;;;;;5010193;28;20045;-82
2022/02/11 16:10:22;;;;;;;;;;;;;;;;;;5028039;28;20044;-82
2022/02/11 16:12:48;;;;;;;1.67;1.48;;;;;;;;;;5026736;28;19921;-82
2022/02/11 16:15:15;;;;;;;1.35;1.15;;;3.80;99.90;;;;;;5061151;28;20049;-84
2022/02/11 16:17:59;;;;;;;2.60;1.65;;;3.60;99.90;;;;;;5056394;28;20046;-84
2022/02/11 16:27:47;;;;;;;7.25;1.00;;;3.20;99.90;;;;;;5023269;28;20048;-84
2022/02/11 16:30:13;;;;;;;2.00;1.08;;;3.10;99.90;;;;;;5061656;28;20510;-84
2022/02/11 16:32:39;;;;;;;0.80;0.80;;;3.10;99.90;;;;;;5029415;28;20126;-84
2022/02/11 16:35:05;;;;;;;0.90;0.90;;;3.50;99.90;;;;;;5009928;28;20522;-84
2022/02/11 16:37:30;;;;;;;4.18;1.33;;;2.80;99.90;;;;;;5027032;28;20041;-85
2022/02/11 16:39:56;;;;;;;1.33;1.20;;;2.70;99.90;;;;;;5054326;28;20053;-84
2022/02/11 16:42:23;;;;;;;6.95;2.08;;;2.70;99.90;;;;;;5031811;28;20333;-84
2022/02/11 16:44:50;;;;;;;1.48;1.20;;;2.70;99.90;;;;;;5042238;28;20110;-84
2022/02/11 16:47:16;;;;;;;8.35;1.45;;;2.60;99.90;;;;;;5027565;28;20414;-84
2022/02/11 16:49:41;;;;;;;5.78;1.45;;;2.60;99.90;;;;;;5025266;28;20057;-83
2022/02/11 16:52:08;;;;;;;1.30;1.20;;;2.60;99.90;;;;;;5033506;28;20077;-83
2022/02/11 16:54:34;;;;;;;;;;;2.50;99.90;;;;;;5048005;28;20053;-84
2022/02/11 16:57:00;;;;;;;5.78;1.98;;;2.50;99.90;;;;;;5030427;28;19956;-84
2022/02/11 16:59:25;;;;;;;1.60;1.50;;;2.60;99.90;;;;;;5029627;28;20072;-84
2022/02/11 17:01:54;;;;;;;1.10;1.00;;;3.00;99.90;;;;;;5025921;28;20478;-84
2022/02/11 17:04:20;;;;;;;1.70;1.23;;;2.80;99.90;;;;;;5026625;28;20045;-85
2022/02/11 17:06:46;;;;;;;0.80;0.80;;;2.80;99.90;;;;;;5055056;28;20083;-85
2022/02/11 17:09:11;;;;;;;2.50;1.52;;;2.80;99.90;;;;;;5057934;28;20490;-85
2022/02/11 17:11:37;;;;;;;1.13;1.05;;;2.90;99.90;;;;;;5026145;28;20042;-85
2022/02/11 17:14:04;;;;;;;0.88;0.82;;;3.00;99.90;;;;;;5059959;28;20045;-84
2022/02/11 17:16:30;;;;;;;3.63;1.20;;;3.00;99.90;;;;;;5059932;28;20537;-83
2022/02/11 17:18:56;;;;;;;1.30;1.10;;;3.80;99.90;;;;;;5055744;28;20118;-84
2022/02/11 17:21:22;;;;;;;3.08;1.02;;;3.10;99.90;;;;;;5041331;28;20049;-84
2022/02/11 17:23:47;;;;;;;1.48;0.95;;;3.80;99.90;;;;;;5023394;28;20053;-84
2022/02/11 17:26:13;;;;;;;0.70;0.70;;;3.20;99.90;;;;;;5005559;28;20053;-84
2022/02/11 17:28:39;;;;;;;0.80;0.80;;;3.20;99.90;;;;;;5052277;28;20052;-84
2022/02/11 17:31:04;;;;;;;1.90;1.80;;;3.40;99.90;;;;;;5057143;28;20112;-83
2022/02/11 17:33:30;;;;;;;1.58;1.33;;;3.20;99.90;;;;;;5056631;28;20538;-84
2022/02/11 17:36:00;;;;;;;0.95;0.95;;;3.10;99.90;;;;;;5017077;28;20037;-84
2022/02/11 17:38:28;;;;;;;4.03;1.48;;;3.10;99.90;;;;;;5050949;28;20379;-84
2022/02/11 17:40:53;;;;;;;11.40;1.58;;;3.10;99.90;;;;;;5056117;28;20193;-84